sensor_id;sensor_type;location;lat;lon;timestamp;P1;durP1;ratioP1;P2;durP2;ratioP2
10432;SDS011;5263;48.680;9.004;2024-02-28T00:01:32;24.43;;;18.00;;
10432;SDS011;5263;48.680;9.004;2024-02-28T00:03:57;21.73;;;16.03;;
10432;SDS011;5263;48.680;9.004;2024-02-28T00:06:23;24.57;;;16.60;;
10432;SDS011;5263;48.680;9.004;2024-02-28T00:08:48;22.37;;;17.03;;
10432;SDS011;5263;48.680;9.004;2024-02-28T00:11:15;21.43;;;16.97;;
10432;SDS011;5263;48.680;9.004;2024-02-28T00:13:41;23.87;;;17.37;;
10432;SDS011;5263;48.680;9.004;2024-02-28T00:16:07;21.43;;;16.80;;
10432;SDS011;5263;48.680;9.004;2024-02-28T00:18:32;21.27;;;16.73;;
10432;SDS011;5263;48.680;9.004;2024-02-28T00:20:58;21.60;;;17.37;;
10432;SDS011;5263;48.680;9.004;2024-02-28T00:23:24;22.37;;;16.07;;
10432;SDS011;5263;48.680;9.004;2024-02-28T00:25:50;21.73;;;16.37;;
10432;SDS011;5263;48.680;9.004;2024-02-28T00:28:15;25.23;;;17.27;;
10432;SDS011;5263;48.680;9.004;2024-02-28T00:30:41;21.17;;;16.37;;
10432;SDS011;5263;48.680;9.004;2024-02-28T00:33:06;21.77;;;16.60;;
10432;SDS011;5263;48.680;9.004;2024-02-28T00:35:32;21.13;;;16.33;;
10432;SDS011;5263;48.680;9.004;2024-02-28T00:38:01;21.97;;;14.97;;
10432;SDS011;5263;48.680;9.004;2024-02-28T00:40:26;20.97;;;15.57;;
10432;SDS011;5263;48.680;9.004;2024-02-28T00:42:53;21.43;;;16.37;;
10432;SDS011;5263;48.680;9.004;2024-02-28T00:45:19;23.77;;;16.90;;
10432;SDS011;5263;48.680;9.004;2024-02-28T00:47:44;23.23;;;16.77;;
10432;SDS011;5263;48.680;9.004;2024-02-28T00:50:10;21.77;;;16.33;;
10432;SDS011;5263;48.680;9.004;2024-02-28T00:52:36;23.90;;;17.67;;
10432;SDS011;5263;48.680;9.004;2024-02-28T00:55:02;24.10;;;15.73;;
10432;SDS011;5263;48.680;9.004;2024-02-28T00:57:29;25.03;;;17.27;;
10432;SDS011;5263;48.680;9.004;2024-02-28T00:59:55;23.57;;;17.03;;
10432;SDS011;5263;48.680;9.004;2024-02-28T01:02:21;19.87;;;14.43;;
10432;SDS011;5263;48.680;9.004;2024-02-28T01:04:47;26.70;;;16.80;;
10432;SDS011;5263;48.680;9.004;2024-02-28T01:07:12;26.43;;;16.77;;
10432;SDS011;5263;48.680;9.004;2024-02-28T01:09:38;23.67;;;17.00;;
10432;SDS011;5263;48.680;9.004;2024-02-28T01:12:04;23.67;;;17.87;;
10432;SDS011;5263;48.680;9.004;2024-02-28T01:14:30;22.50;;;16.93;;
10432;SDS011;5263;48.680;9.004;2024-02-28T01:16:55;27.90;;;17.77;;
10432;SDS011;5263;48.680;9.004;2024-02-28T01:19:21;25.53;;;18.50;;
10432;SDS011;5263;48.680;9.004;2024-02-28T01:21:46;21.97;;;16.90;;
10432;SDS011;5263;48.680;9.004;2024-02-28T01:24:12;24.20;;;18.20;;
10432;SDS011;5263;48.680;9.004;2024-02-28T01:26:37;23.43;;;17.03;;
10432;SDS011;5263;48.680;9.004;2024-02-28T01:29:03;27.30;;;18.60;;
10432;SDS011;5263;48.680;9.004;2024-02-28T01:31:28;27.00;;;19.13;;
10432;SDS011;5263;48.680;9.004;2024-02-28T01:33:54;26.53;;;18.73;;
10432;SDS011;5263;48.680;9.004;2024-02-28T01:36:20;24.83;;;17.50;;
10432;SDS011;5263;48.680;9.004;2024-02-28T01:38:46;25.50;;;18.27;;
10432;SDS011;5263;48.680;9.004;2024-02-28T01:41:11;31.27;;;19.23;;
10432;SDS011;5263;48.680;9.004;2024-02-28T01:43:38;24.93;;;19.10;;
10432;SDS011;5263;48.680;9.004;2024-02-28T01:46:05;28.27;;;18.23;;
10432;SDS011;5263;48.680;9.004;2024-02-28T01:48:47;26.33;;;19.63;;
10432;SDS011;5263;48.680;9.004;2024-02-28T01:51:13;23.50;;;17.50;;
10432;SDS011;5263;48.680;9.004;2024-02-28T01:53:39;25.00;;;18.33;;
10432;SDS011;5263;48.680;9.004;2024-02-28T01:56:04;29.50;;;18.43;;
10432;SDS011;5263;48.680;9.004;2024-02-28T01:58:31;29.33;;;19.00;;
10432;SDS011;5263;48.680;9.004;2024-02-28T02:00:57;25.80;;;18.67;;
10432;SDS011;5263;48.680;9.004;2024-02-28T02:03:25;27.40;;;19.83;;
10432;SDS011;5263;48.680;9.004;2024-02-28T02:05:50;28.90;;;19.90;;
10432;SDS011;5263;48.680;9.004;2024-02-28T02:08:16;25.83;;;17.90;;
10432;SDS011;5263;48.680;9.004;2024-02-28T02:10:42;24.40;;;17.70;;
10432;SDS011;5263;48.680;9.004;2024-02-28T02:13:07;25.13;;;18.20;;
10432;SDS011;5263;48.680;9.004;2024-02-28T02:15:33;22.83;;;17.07;;
10432;SDS011;5263;48.680;9.004;2024-02-28T02:17:59;23.70;;;17.33;;
10432;SDS011;5263;48.680;9.004;2024-02-28T02:20:25;24.73;;;16.70;;
10432;SDS011;5263;48.680;9.004;2024-02-28T02:22:54;23.10;;;16.37;;
10432;SDS011;5263;48.680;9.004;2024-02-28T02:25:20;23.30;;;17.07;;
10432;SDS011;5263;48.680;9.004;2024-02-28T02:27:46;26.10;;;17.23;;
10432;SDS011;5263;48.680;9.004;2024-02-28T02:30:11;22.87;;;16.90;;
10432;SDS011;5263;48.680;9.004;2024-02-28T02:32:37;22.23;;;16.70;;
10432;SDS011;5263;48.680;9.004;2024-02-28T02:35:03;26.37;;;17.90;;
10432;SDS011;5263;48.680;9.004;2024-02-28T02:37:28;21.63;;;17.27;;
10432;SDS011;5263;48.680;9.004;2024-02-28T02:39:54;23.63;;;15.90;;
10432;SDS011;5263;48.680;9.004;2024-02-28T02:42:20;28.33;;;17.27;;
10432;SDS011;5263;48.680;9.004;2024-02-28T02:44:45;23.37;;;16.07;;
10432;SDS011;5263;48.680;9.004;2024-02-28T02:47:11;22.23;;;16.80;;
10432;SDS011;5263;48.680;9.004;2024-02-28T02:49:36;24.33;;;16.43;;
10432;SDS011;5263;48.680;9.004;2024-02-28T02:52:02;22.37;;;16.07;;
10432;SDS011;5263;48.680;9.004;2024-02-28T02:54:28;25.53;;;18.10;;
10432;SDS011;5263;48.680;9.004;2024-02-28T02:56:53;22.67;;;16.83;;
10432;SDS011;5263;48.680;9.004;2024-02-28T02:59:19;21.10;;;15.40;;
10432;SDS011;5263;48.680;9.004;2024-02-28T03:01:46;21.33;;;17.30;;
10432;SDS011;5263;48.680;9.004;2024-02-28T03:04:12;25.63;;;17.40;;
10432;SDS011;5263;48.680;9.004;2024-02-28T03:06:38;25.60;;;17.50;;
10432;SDS011;5263;48.680;9.004;2024-02-28T03:09:03;22.63;;;16.73;;
10432;SDS011;5263;48.680;9.004;2024-02-28T03:11:29;26.33;;;17.97;;
10432;SDS011;5263;48.680;9.004;2024-02-28T03:13:54;23.67;;;16.70;;
10432;SDS011;5263;48.680;9.004;2024-02-28T03:16:20;29.77;;;17.77;;
10432;SDS011;5263;48.680;9.004;2024-02-28T03:18:45;25.97;;;18.23;;
10432;SDS011;5263;48.680;9.004;2024-02-28T03:21:11;26.37;;;18.17;;
10432;SDS011;5263;48.680;9.004;2024-02-28T03:23:37;24.33;;;17.43;;
10432;SDS011;5263;48.680;9.004;2024-02-28T03:26:02;28.53;;;17.90;;
10432;SDS011;5263;48.680;9.004;2024-02-28T03:28:28;24.97;;;17.83;;
10432;SDS011;5263;48.680;9.004;2024-02-28T03:30:54;38.67;;;18.57;;
10432;SDS011;5263;48.680;9.004;2024-02-28T03:33:19;27.93;;;17.93;;
10432;SDS011;5263;48.680;9.004;2024-02-28T03:35:45;26.00;;;18.47;;
10432;SDS011;5263;48.680;9.004;2024-02-28T03:38:11;23.77;;;18.03;;
10432;SDS011;5263;48.680;9.004;2024-02-28T03:40:36;25.97;;;17.97;;
10432;SDS011;5263;48.680;9.004;2024-02-28T03:43:02;20.40;;;16.60;;
10432;SDS011;5263;48.680;9.004;2024-02-28T03:45:28;25.77;;;17.43;;
10432;SDS011;5263;48.680;9.004;2024-02-28T03:47:56;24.67;;;17.60;;
10432;SDS011;5263;48.680;9.004;2024-02-28T03:50:22;22.53;;;16.30;;
10432;SDS011;5263;48.680;9.004;2024-02-28T03:52:47;23.73;;;17.97;;
10432;SDS011;5263;48.680;9.004;2024-02-28T03:55:13;23.90;;;17.27;;
10432;SDS011;5263;48.680;9.004;2024-02-28T03:57:40;24.07;;;16.33;;
10432;SDS011;5263;48.680;9.004;2024-02-28T04:00:06;26.27;;;17.97;;
10432;SDS011;5263;48.680;9.004;2024-02-28T04:02:33;23.83;;;16.90;;
10432;SDS011;5263;48.680;9.004;2024-02-28T04:04:58;23.33;;;16.70;;
10432;SDS011;5263;48.680;9.004;2024-02-28T04:07:24;21.77;;;17.07;;
10432;SDS011;5263;48.680;9.004;2024-02-28T04:09:49;23.67;;;16.30;;
10432;SDS011;5263;48.680;9.004;2024-02-28T04:12:15;24.40;;;16.83;;
10432;SDS011;5263;48.680;9.004;2024-02-28T04:14:40;23.87;;;16.93;;
10432;SDS011;5263;48.680;9.004;2024-02-28T04:17:06;22.57;;;17.13;;
10432;SDS011;5263;48.680;9.004;2024-02-28T04:19:34;22.70;;;16.90;;
10432;SDS011;5263;48.680;9.004;2024-02-28T04:22:04;25.40;;;17.83;;
10432;SDS011;5263;48.680;9.004;2024-02-28T04:24:29;24.63;;;17.10;;
10432;SDS011;5263;48.680;9.004;2024-02-28T04:26:55;26.13;;;17.57;;
10432;SDS011;5263;48.680;9.004;2024-02-28T04:29:23;22.23;;;15.70;;
10432;SDS011;5263;48.680;9.004;2024-02-28T04:31:48;26.03;;;18.40;;
10432;SDS011;5263;48.680;9.004;2024-02-28T04:34:14;27.67;;;18.40;;
10432;SDS011;5263;48.680;9.004;2024-02-28T04:36:40;25.70;;;17.90;;
10432;SDS011;5263;48.680;9.004;2024-02-28T04:39:05;26.63;;;18.50;;
10432;SDS011;5263;48.680;9.004;2024-02-28T04:41:32;21.30;;;16.93;;
10432;SDS011;5263;48.680;9.004;2024-02-28T04:43:59;23.67;;;16.60;;
10432;SDS011;5263;48.680;9.004;2024-02-28T04:46:24;23.57;;;17.83;;
10432;SDS011;5263;48.680;9.004;2024-02-28T04:48:50;24.00;;;17.30;;
10432;SDS011;5263;48.680;9.004;2024-02-28T04:51:16;25.27;;;17.43;;
10432;SDS011;5263;48.680;9.004;2024-02-28T04:53:42;26.17;;;19.13;;
10432;SDS011;5263;48.680;9.004;2024-02-28T04:56:08;24.80;;;17.90;;
10432;SDS011;5263;48.680;9.004;2024-02-28T04:58:35;23.17;;;16.53;;
10432;SDS011;5263;48.680;9.004;2024-02-28T05:01:01;24.10;;;17.60;;
10432;SDS011;5263;48.680;9.004;2024-02-28T05:03:26;30.13;;;20.27;;
10432;SDS011;5263;48.680;9.004;2024-02-28T05:05:52;26.17;;;19.93;;
10432;SDS011;5263;48.680;9.004;2024-02-28T05:08:19;26.63;;;19.77;;
10432;SDS011;5263;48.680;9.004;2024-02-28T05:10:45;31.47;;;21.33;;
10432;SDS011;5263;48.680;9.004;2024-02-28T05:13:11;28.67;;;20.17;;
10432;SDS011;5263;48.680;9.004;2024-02-28T05:15:36;29.57;;;22.30;;
10432;SDS011;5263;48.680;9.004;2024-02-28T05:18:02;27.80;;;19.40;;
10432;SDS011;5263;48.680;9.004;2024-02-28T05:20:28;23.90;;;17.43;;
10432;SDS011;5263;48.680;9.004;2024-02-28T05:22:53;28.03;;;19.63;;
10432;SDS011;5263;48.680;9.004;2024-02-28T05:25:19;30.83;;;20.37;;
10432;SDS011;5263;48.680;9.004;2024-02-28T05:27:44;26.47;;;18.67;;
10432;SDS011;5263;48.680;9.004;2024-02-28T05:30:10;30.03;;;20.43;;
10432;SDS011;5263;48.680;9.004;2024-02-28T05:32:36;27.57;;;20.50;;
10432;SDS011;5263;48.680;9.004;2024-02-28T05:35:01;30.40;;;20.53;;
10432;SDS011;5263;48.680;9.004;2024-02-28T05:37:27;27.47;;;19.13;;
10432;SDS011;5263;48.680;9.004;2024-02-28T05:39:53;25.87;;;19.33;;
10432;SDS011;5263;48.680;9.004;2024-02-28T05:42:18;25.47;;;18.83;;
10432;SDS011;5263;48.680;9.004;2024-02-28T05:44:49;28.63;;;20.30;;
10432;SDS011;5263;48.680;9.004;2024-02-28T05:47:15;25.00;;;18.30;;
10432;SDS011;5263;48.680;9.004;2024-02-28T05:49:41;27.13;;;19.67;;
10432;SDS011;5263;48.680;9.004;2024-02-28T05:52:07;24.87;;;18.50;;
10432;SDS011;5263;48.680;9.004;2024-02-28T05:54:32;28.10;;;18.07;;
10432;SDS011;5263;48.680;9.004;2024-02-28T05:57:01;23.97;;;18.07;;
10432;SDS011;5263;48.680;9.004;2024-02-28T05:59:26;23.30;;;17.23;;
10432;SDS011;5263;48.680;9.004;2024-02-28T06:01:52;24.40;;;17.73;;
10432;SDS011;5263;48.680;9.004;2024-02-28T06:04:17;24.33;;;17.47;;
10432;SDS011;5263;48.680;9.004;2024-02-28T06:06:43;24.40;;;18.40;;
10432;SDS011;5263;48.680;9.004;2024-02-28T06:09:09;24.63;;;18.17;;
10432;SDS011;5263;48.680;9.004;2024-02-28T06:11:35;24.17;;;16.77;;
10432;SDS011;5263;48.680;9.004;2024-02-28T06:14:00;26.60;;;18.13;;
10432;SDS011;5263;48.680;9.004;2024-02-28T06:16:27;22.67;;;17.30;;
10432;SDS011;5263;48.680;9.004;2024-02-28T06:18:53;27.10;;;17.77;;
10432;SDS011;5263;48.680;9.004;2024-02-28T06:21:21;24.90;;;18.13;;
10432;SDS011;5263;48.680;9.004;2024-02-28T06:23:47;25.13;;;18.23;;
10432;SDS011;5263;48.680;9.004;2024-02-28T06:26:13;26.00;;;19.33;;
10432;SDS011;5263;48.680;9.004;2024-02-28T06:28:41;26.70;;;19.20;;
10432;SDS011;5263;48.680;9.004;2024-02-28T06:31:16;24.60;;;16.90;;
10432;SDS011;5263;48.680;9.004;2024-02-28T06:33:42;24.13;;;16.77;;
10432;SDS011;5263;48.680;9.004;2024-02-28T06:36:08;24.40;;;17.83;;
10432;SDS011;5263;48.680;9.004;2024-02-28T06:38:33;27.37;;;18.60;;
10432;SDS011;5263;48.680;9.004;2024-02-28T06:41:03;23.83;;;17.90;;
10432;SDS011;5263;48.680;9.004;2024-02-28T06:43:29;24.07;;;18.23;;
10432;SDS011;5263;48.680;9.004;2024-02-28T06:45:57;25.83;;;18.13;;
10432;SDS011;5263;48.680;9.004;2024-02-28T06:48:23;23.80;;;17.57;;
10432;SDS011;5263;48.680;9.004;2024-02-28T06:50:48;25.50;;;17.50;;
10432;SDS011;5263;48.680;9.004;2024-02-28T06:53:14;26.13;;;17.77;;
10432;SDS011;5263;48.680;9.004;2024-02-28T06:55:39;26.63;;;18.60;;
10432;SDS011;5263;48.680;9.004;2024-02-28T06:58:05;22.57;;;16.53;;
10432;SDS011;5263;48.680;9.004;2024-02-28T07:00:30;28.47;;;16.97;;
10432;SDS011;5263;48.680;9.004;2024-02-28T07:02:56;19.33;;;15.10;;
10432;SDS011;5263;48.680;9.004;2024-02-28T07:05:21;34.00;;;26.03;;
10432;SDS011;5263;48.680;9.004;2024-02-28T07:07:47;20.53;;;15.27;;
10432;SDS011;5263;48.680;9.004;2024-02-28T07:10:12;19.03;;;14.40;;
10432;SDS011;5263;48.680;9.004;2024-02-28T07:12:38;18.13;;;12.93;;
10432;SDS011;5263;48.680;9.004;2024-02-28T07:15:04;12.93;;;10.10;;
10432;SDS011;5263;48.680;9.004;2024-02-28T07:17:30;12.23;;;9.80;;
10432;SDS011;5263;48.680;9.004;2024-02-28T07:19:56;12.83;;;10.90;;
10432;SDS011;5263;48.680;9.004;2024-02-28T07:22:21;15.13;;;11.17;;
10432;SDS011;5263;48.680;9.004;2024-02-28T07:24:47;13.10;;;10.37;;
10432;SDS011;5263;48.680;9.004;2024-02-28T07:27:13;16.23;;;12.10;;
10432;SDS011;5263;48.680;9.004;2024-02-28T07:29:38;16.57;;;13.20;;
10432;SDS011;5263;48.680;9.004;2024-02-28T07:32:04;14.10;;;11.40;;
10432;SDS011;5263;48.680;9.004;2024-02-28T07:34:30;13.73;;;11.90;;
10432;SDS011;5263;48.680;9.004;2024-02-28T07:36:55;17.70;;;12.57;;
10432;SDS011;5263;48.680;9.004;2024-02-28T07:39:22;18.70;;;14.50;;
10432;SDS011;5263;48.680;9.004;2024-02-28T07:41:49;16.97;;;12.97;;
10432;SDS011;5263;48.680;9.004;2024-02-28T07:44:15;14.73;;;11.20;;
10432;SDS011;5263;48.680;9.004;2024-02-28T07:46:41;12.97;;;11.10;;
10432;SDS011;5263;48.680;9.004;2024-02-28T07:49:07;15.03;;;11.77;;
10432;SDS011;5263;48.680;9.004;2024-02-28T07:51:32;12.10;;;10.63;;
10432;SDS011;5263;48.680;9.004;2024-02-28T07:53:58;13.90;;;11.07;;
10432;SDS011;5263;48.680;9.004;2024-02-28T07:56:24;15.77;;;12.00;;
10432;SDS011;5263;48.680;9.004;2024-02-28T07:58:50;14.93;;;12.93;;
10432;SDS011;5263;48.680;9.004;2024-02-28T08:01:15;18.17;;;12.00;;
10432;SDS011;5263;48.680;9.004;2024-02-28T08:03:41;16.40;;;11.57;;
10432;SDS011;5263;48.680;9.004;2024-02-28T08:06:07;15.77;;;12.27;;
10432;SDS011;5263;48.680;9.004;2024-02-28T08:08:33;17.27;;;12.13;;
10432;SDS011;5263;48.680;9.004;2024-02-28T08:11:00;21.07;;;14.80;;
10432;SDS011;5263;48.680;9.004;2024-02-28T08:13:25;20.07;;;13.93;;
10432;SDS011;5263;48.680;9.004;2024-02-28T08:15:53;24.93;;;14.23;;
10432;SDS011;5263;48.680;9.004;2024-02-28T08:18:19;16.93;;;11.40;;
10432;SDS011;5263;48.680;9.004;2024-02-28T08:20:44;30.37;;;13.07;;
10432;SDS011;5263;48.680;9.004;2024-02-28T08:23:10;15.77;;;12.03;;
10432;SDS011;5263;48.680;9.004;2024-02-28T08:25:35;17.83;;;12.90;;
10432;SDS011;5263;48.680;9.004;2024-02-28T08:28:02;13.90;;;11.73;;
10432;SDS011;5263;48.680;9.004;2024-02-28T08:30:28;14.47;;;10.27;;
10432;SDS011;5263;48.680;9.004;2024-02-28T08:32:54;11.97;;;10.47;;
10432;SDS011;5263;48.680;9.004;2024-02-28T08:35:19;15.83;;;11.03;;
10432;SDS011;5263;48.680;9.004;2024-02-28T08:37:45;15.53;;;10.87;;
10432;SDS011;5263;48.680;9.004;2024-02-28T08:40:10;14.70;;;11.00;;
10432;SDS011;5263;48.680;9.004;2024-02-28T08:42:37;12.93;;;9.83;;
10432;SDS011;5263;48.680;9.004;2024-02-28T08:45:03;12.93;;;9.20;;
10432;SDS011;5263;48.680;9.004;2024-02-28T08:47:30;13.13;;;10.20;;
10432;SDS011;5263;48.680;9.004;2024-02-28T08:49:56;12.67;;;10.03;;
10432;SDS011;5263;48.680;9.004;2024-02-28T08:52:22;13.70;;;9.97;;
10432;SDS011;5263;48.680;9.004;2024-02-28T08:54:47;14.10;;;10.03;;
10432;SDS011;5263;48.680;9.004;2024-02-28T08:57:13;13.83;;;10.77;;
10432;SDS011;5263;48.680;9.004;2024-02-28T08:59:39;11.63;;;9.43;;
10432;SDS011;5263;48.680;9.004;2024-02-28T09:02:05;13.53;;;10.07;;
10432;SDS011;5263;48.680;9.004;2024-02-28T09:04:31;11.63;;;9.47;;
10432;SDS011;5263;48.680;9.004;2024-02-28T09:06:57;10.73;;;8.27;;
10432;SDS011;5263;48.680;9.004;2024-02-28T09:09:22;11.80;;;9.50;;
10432;SDS011;5263;48.680;9.004;2024-02-28T09:11:48;19.43;;;13.73;;
10432;SDS011;5263;48.680;9.004;2024-02-28T09:14:13;11.10;;;9.57;;
10432;SDS011;5263;48.680;9.004;2024-02-28T09:16:39;12.33;;;8.27;;
10432;SDS011;5263;48.680;9.004;2024-02-28T09:19:04;19.20;;;13.90;;
10432;SDS011;5263;48.680;9.004;2024-02-28T09:21:30;15.10;;;12.17;;
10432;SDS011;5263;48.680;9.004;2024-02-28T09:23:56;15.73;;;9.77;;
10432;SDS011;5263;48.680;9.004;2024-02-28T09:26:22;20.67;;;11.97;;
10432;SDS011;5263;48.680;9.004;2024-02-28T09:28:47;11.20;;;10.00;;
10432;SDS011;5263;48.680;9.004;2024-02-28T09:31:13;11.30;;;9.90;;
10432;SDS011;5263;48.680;9.004;2024-02-28T09:33:40;11.30;;;9.87;;
10432;SDS011;5263;48.680;9.004;2024-02-28T09:36:06;14.60;;;9.63;;
10432;SDS011;5263;48.680;9.004;2024-02-28T09:38:32;16.33;;;11.57;;
10432;SDS011;5263;48.680;9.004;2024-02-28T09:40:59;15.20;;;10.73;;
10432;SDS011;5263;48.680;9.004;2024-02-28T09:43:29;11.43;;;10.23;;
10432;SDS011;5263;48.680;9.004;2024-02-28T09:46:08;12.40;;;10.10;;
10432;SDS011;5263;48.680;9.004;2024-02-28T09:48:41;11.90;;;10.43;;
10432;SDS011;5263;48.680;9.004;2024-02-28T09:51:06;16.10;;;11.13;;
10432;SDS011;5263;48.680;9.004;2024-02-28T09:53:34;14.17;;;10.90;;
10432;SDS011;5263;48.680;9.004;2024-02-28T09:55:59;13.80;;;10.93;;
10432;SDS011;5263;48.680;9.004;2024-02-28T09:58:26;17.53;;;12.17;;
10432;SDS011;5263;48.680;9.004;2024-02-28T10:00:52;15.97;;;11.67;;
10432;SDS011;5263;48.680;9.004;2024-02-28T10:03:24;13.90;;;12.30;;
10432;SDS011;5263;48.680;9.004;2024-02-28T10:05:51;12.00;;;9.97;;
10432;SDS011;5263;48.680;9.004;2024-02-28T10:08:16;12.43;;;9.20;;
10432;SDS011;5263;48.680;9.004;2024-02-28T10:10:45;12.00;;;10.00;;
10432;SDS011;5263;48.680;9.004;2024-02-28T10:13:18;12.40;;;8.93;;
10432;SDS011;5263;48.680;9.004;2024-02-28T10:15:44;15.17;;;9.93;;
10432;SDS011;5263;48.680;9.004;2024-02-28T10:18:10;11.73;;;9.80;;
10432;SDS011;5263;48.680;9.004;2024-02-28T10:20:35;13.80;;;11.10;;
10432;SDS011;5263;48.680;9.004;2024-02-28T10:23:04;13.10;;;10.40;;
10432;SDS011;5263;48.680;9.004;2024-02-28T10:25:31;13.47;;;10.57;;
10432;SDS011;5263;48.680;9.004;2024-02-28T10:28:00;12.73;;;10.13;;
10432;SDS011;5263;48.680;9.004;2024-02-28T10:30:26;20.23;;;14.80;;
10432;SDS011;5263;48.680;9.004;2024-02-28T10:32:52;17.90;;;12.63;;
10432;SDS011;5263;48.680;9.004;2024-02-28T10:35:18;10.50;;;8.53;;
10432;SDS011;5263;48.680;9.004;2024-02-28T10:37:50;11.43;;;9.60;;
10432;SDS011;5263;48.680;9.004;2024-02-28T10:40:17;9.97;;;8.63;;
10432;SDS011;5263;48.680;9.004;2024-02-28T10:42:44;10.73;;;8.80;;
10432;SDS011;5263;48.680;9.004;2024-02-28T10:45:10;11.10;;;8.90;;
10432;SDS011;5263;48.680;9.004;2024-02-28T10:47:37;10.77;;;8.97;;
10432;SDS011;5263;48.680;9.004;2024-02-28T10:50:04;11.00;;;9.83;;
10432;SDS011;5263;48.680;9.004;2024-02-28T10:52:30;15.87;;;11.00;;
10432;SDS011;5263;48.680;9.004;2024-02-28T10:54:58;18.90;;;13.43;;
10432;SDS011;5263;48.680;9.004;2024-02-28T10:57:26;13.73;;;10.67;;
10432;SDS011;5263;48.680;9.004;2024-02-28T10:59:54;14.50;;;11.70;;
10432;SDS011;5263;48.680;9.004;2024-02-28T11:02:21;11.10;;;9.90;;
10432;SDS011;5263;48.680;9.004;2024-02-28T11:04:51;13.30;;;10.63;;
10432;SDS011;5263;48.680;9.004;2024-02-28T11:07:20;11.90;;;9.97;;
10432;SDS011;5263;48.680;9.004;2024-02-28T11:09:46;11.93;;;9.97;;
10432;SDS011;5263;48.680;9.004;2024-02-28T11:12:25;11.07;;;9.83;;
10432;SDS011;5263;48.680;9.004;2024-02-28T11:14:57;12.03;;;9.97;;
10432;SDS011;5263;48.680;9.004;2024-02-28T11:17:27;15.37;;;11.00;;
10432;SDS011;5263;48.680;9.004;2024-02-28T11:19:54;14.73;;;10.63;;
10432;SDS011;5263;48.680;9.004;2024-02-28T11:22:20;14.87;;;10.00;;
10432;SDS011;5263;48.680;9.004;2024-02-28T11:24:48;13.67;;;10.33;;
10432;SDS011;5263;48.680;9.004;2024-02-28T11:27:15;13.50;;;10.30;;
10432;SDS011;5263;48.680;9.004;2024-02-28T11:29:41;12.57;;;10.53;;
10432;SDS011;5263;48.680;9.004;2024-02-28T11:32:07;14.23;;;12.00;;
10432;SDS011;5263;48.680;9.004;2024-02-28T11:34:36;16.53;;;11.47;;
10432;SDS011;5263;48.680;9.004;2024-02-28T11:37:02;14.03;;;11.07;;
10432;SDS011;5263;48.680;9.004;2024-02-28T11:39:28;14.23;;;11.67;;
10432;SDS011;5263;48.680;9.004;2024-02-28T11:41:55;14.17;;;10.53;;
10432;SDS011;5263;48.680;9.004;2024-02-28T11:44:20;13.43;;;11.13;;
10432;SDS011;5263;48.680;9.004;2024-02-28T11:46:47;11.57;;;9.33;;
10432;SDS011;5263;48.680;9.004;2024-02-28T11:49:13;16.03;;;11.57;;
10432;SDS011;5263;48.680;9.004;2024-02-28T11:51:43;16.23;;;13.00;;
10432;SDS011;5263;48.680;9.004;2024-02-28T11:54:09;12.67;;;11.17;;
10432;SDS011;5263;48.680;9.004;2024-02-28T11:56:38;16.17;;;10.87;;
10432;SDS011;5263;48.680;9.004;2024-02-28T11:59:04;14.17;;;11.00;;
10432;SDS011;5263;48.680;9.004;2024-02-28T12:01:37;11.20;;;10.00;;
10432;SDS011;5263;48.680;9.004;2024-02-28T12:04:05;12.67;;;10.87;;
10432;SDS011;5263;48.680;9.004;2024-02-28T12:06:31;12.67;;;10.47;;
10432;SDS011;5263;48.680;9.004;2024-02-28T12:08:57;13.13;;;11.23;;
10432;SDS011;5263;48.680;9.004;2024-02-28T12:11:26;15.07;;;12.40;;
10432;SDS011;5263;48.680;9.004;2024-02-28T12:13:54;23.67;;;13.23;;
10432;SDS011;5263;48.680;9.004;2024-02-28T12:16:24;15.93;;;12.87;;
10432;SDS011;5263;48.680;9.004;2024-02-28T12:18:51;16.83;;;11.77;;
10432;SDS011;5263;48.680;9.004;2024-02-28T12:21:17;17.07;;;12.00;;
10432;SDS011;5263;48.680;9.004;2024-02-28T12:23:43;16.50;;;12.70;;
10432;SDS011;5263;48.680;9.004;2024-02-28T12:26:09;17.23;;;12.67;;
10432;SDS011;5263;48.680;9.004;2024-02-28T12:28:34;21.03;;;13.90;;
10432;SDS011;5263;48.680;9.004;2024-02-28T12:31:00;16.87;;;12.37;;
10432;SDS011;5263;48.680;9.004;2024-02-28T12:33:25;16.13;;;12.70;;
10432;SDS011;5263;48.680;9.004;2024-02-28T12:35:51;17.37;;;12.23;;
10432;SDS011;5263;48.680;9.004;2024-02-28T12:38:17;16.50;;;12.57;;
10432;SDS011;5263;48.680;9.004;2024-02-28T12:40:42;15.77;;;12.43;;
10432;SDS011;5263;48.680;9.004;2024-02-28T12:43:08;14.57;;;10.80;;
10432;SDS011;5263;48.680;9.004;2024-02-28T12:45:33;15.53;;;11.57;;
10432;SDS011;5263;48.680;9.004;2024-02-28T12:47:59;13.47;;;11.50;;
10432;SDS011;5263;48.680;9.004;2024-02-28T12:50:26;14.23;;;11.30;;
10432;SDS011;5263;48.680;9.004;2024-02-28T12:52:52;14.50;;;11.93;;
10432;SDS011;5263;48.680;9.004;2024-02-28T12:55:20;15.50;;;12.03;;
10432;SDS011;5263;48.680;9.004;2024-02-28T12:57:46;26.00;;;13.27;;
10432;SDS011;5263;48.680;9.004;2024-02-28T13:00:12;15.50;;;12.23;;
10432;SDS011;5263;48.680;9.004;2024-02-28T13:02:38;16.27;;;12.37;;
10432;SDS011;5263;48.680;9.004;2024-02-28T13:05:04;15.73;;;12.13;;
10432;SDS011;5263;48.680;9.004;2024-02-28T13:07:30;15.50;;;12.17;;
10432;SDS011;5263;48.680;9.004;2024-02-28T13:09:56;17.80;;;11.67;;
10432;SDS011;5263;48.680;9.004;2024-02-28T13:12:21;13.40;;;12.00;;
10432;SDS011;5263;48.680;9.004;2024-02-28T13:14:47;15.37;;;10.97;;
10432;SDS011;5263;48.680;9.004;2024-02-28T13:17:13;17.80;;;11.77;;
10432;SDS011;5263;48.680;9.004;2024-02-28T13:19:40;16.80;;;13.20;;
10432;SDS011;5263;48.680;9.004;2024-02-28T13:22:05;16.37;;;12.70;;
10432;SDS011;5263;48.680;9.004;2024-02-28T13:24:31;16.27;;;12.13;;
10432;SDS011;5263;48.680;9.004;2024-02-28T13:26:57;15.37;;;12.17;;
10432;SDS011;5263;48.680;9.004;2024-02-28T13:29:22;15.43;;;12.33;;
10432;SDS011;5263;48.680;9.004;2024-02-28T13:31:48;20.20;;;13.10;;
10432;SDS011;5263;48.680;9.004;2024-02-28T13:34:13;16.50;;;12.77;;
10432;SDS011;5263;48.680;9.004;2024-02-28T13:36:39;19.63;;;14.37;;
10432;SDS011;5263;48.680;9.004;2024-02-28T13:39:07;20.83;;;14.23;;
10432;SDS011;5263;48.680;9.004;2024-02-28T13:41:34;18.27;;;14.03;;
10432;SDS011;5263;48.680;9.004;2024-02-28T13:44:00;22.07;;;13.60;;
10432;SDS011;5263;48.680;9.004;2024-02-28T13:46:25;18.70;;;13.47;;
10432;SDS011;5263;48.680;9.004;2024-02-28T13:48:51;15.97;;;12.30;;
10432;SDS011;5263;48.680;9.004;2024-02-28T13:51:16;18.83;;;14.07;;
10432;SDS011;5263;48.680;9.004;2024-02-28T13:53:42;18.63;;;12.93;;
10432;SDS011;5263;48.680;9.004;2024-02-28T13:56:07;20.20;;;13.73;;
10432;SDS011;5263;48.680;9.004;2024-02-28T13:58:33;17.50;;;13.27;;
10432;SDS011;5263;48.680;9.004;2024-02-28T14:00:59;17.83;;;13.33;;
10432;SDS011;5263;48.680;9.004;2024-02-28T14:03:24;17.97;;;14.83;;
10432;SDS011;5263;48.680;9.004;2024-02-28T14:05:50;18.13;;;13.40;;
10432;SDS011;5263;48.680;9.004;2024-02-28T14:08:17;17.43;;;13.00;;
10432;SDS011;5263;48.680;9.004;2024-02-28T14:10:42;14.70;;;12.83;;
10432;SDS011;5263;48.680;9.004;2024-02-28T14:13:08;21.47;;;14.43;;
10432;SDS011;5263;48.680;9.004;2024-02-28T14:15:36;17.80;;;12.83;;
10432;SDS011;5263;48.680;9.004;2024-02-28T14:18:02;14.20;;;11.87;;
10432;SDS011;5263;48.680;9.004;2024-02-28T14:20:28;18.27;;;14.23;;
10432;SDS011;5263;48.680;9.004;2024-02-28T14:22:54;19.43;;;14.50;;
10432;SDS011;5263;48.680;9.004;2024-02-28T14:25:21;21.37;;;15.30;;
10432;SDS011;5263;48.680;9.004;2024-02-28T14:27:47;18.03;;;14.03;;
10432;SDS011;5263;48.680;9.004;2024-02-28T14:30:13;15.00;;;13.07;;